Main page
METAR-TAF:

METAR-TAF

Airports :

Mytilene International Airport

Mytilene-Lesbos, Greece

latitude: 39-04N, longitude: 026-36E, elevation: 3 m

Current weather observation

The report was made 16 minutes ago, at 14:20 UTC
Wind 8 kt from the South/Southeast
Temperature 12°C
Humidity 54%
Pressure 1028 hPa
Visibility 10 km or more
Few clouds at a height of 2000 ft
Scattered clouds at a height of 3000 ft

METAR: LGMT 211420Z 15008KT 9999 FEW020 SCT030 12/03 Q1028

Time: 16:36 (14:36 UTC)

Forecast

The report was made 36 minutes ago, at 14:00 UTC
Forecast valid from 21 at 15 UTC to 21 at 24 UTC
Wind 10 kt from the South/Southeast
Visibility 10 km or more
Few clouds at a height of 1800 ft
Broken clouds at a height of 2500 ft

TAF: LGMT 211400Z 2115/2124 15010KT 9999 FEW018 BKN025

Weather observations and forecasts of more than 4000 airports (METAR and TAF reports).

The available stations are represented by yellow and red dots on the map.

Hover mouse over dot to see the name of the station.

Then click to see weather observations and forecasts.

To change the map : click on the green buttons with a black cross to zoom in, on the green button with a dash to zoom out, or on the green arrows for adjacent maps.


METAR-TAF: